Terminal Aerodrome Forecast
Issued by NWS Twin Cities, MN

Home | Current Version | Previous Version | Text Only | Print | Product List | Glossary On
Versions: 1 2 3 4 5 6 7 8 9 10 11 12 13 14 15 16 17 18 19 20 21 22 23
000
FTUS43 KMPX 271720
TAFSTC
TAF
KSTC 271720Z 2718/2818 12007KT P6SM -SHRA SCT025 OVC040
      TEMPO 2718/2721 5SM SHRA OVC025
     FM272200 VRB06KT P6SM SCT020 OVC035
     FM280500 VRB03KT 3SM BR SCT007 OVC015
     FM281100 02004KT 5SM BR OVC008
     FM281400 36003KT P6SM OVC020=

USA.gov is the U.S. government's official web portal to all federal, state and local government web resources and services.